createdAt,value
2022-09-17T00:01:31.805Z,18.86
2022-09-17T00:04:05.529Z,18.80
2022-09-17T00:06:35.454Z,18.90
2022-09-17T00:09:06.468Z,19.14
2022-09-17T00:11:36.855Z,19.07
2022-09-17T00:14:07.156Z,19.09
2022-09-17T00:16:39.239Z,19.09
2022-09-17T00:19:10.795Z,19.08
2022-09-17T00:21:38.275Z,19.01
2022-09-17T00:24:07.342Z,18.50
2022-09-17T00:26:36.783Z,18.42
2022-09-17T00:29:05.976Z,18.48
2022-09-17T00:31:35.411Z,18.18
2022-09-17T00:34:05.312Z,18.15
2022-09-17T00:36:36.863Z,18.20
2022-09-17T00:39:06.603Z,18.14
2022-09-17T00:41:36.309Z,18.09
2022-09-17T00:44:41.283Z,17.93
2022-09-17T00:47:17.289Z,18.14
2022-09-17T00:49:46.393Z,18.18
2022-09-17T00:52:22.200Z,18.12
2022-09-17T00:54:56.807Z,18.14
2022-09-17T00:57:24.864Z,18.12
2022-09-17T00:59:52.824Z,18.06
2022-09-17T01:02:20.801Z,18.20
2022-09-17T01:04:48.922Z,18.12
2022-09-17T01:07:38.222Z,18.15
2022-09-17T01:11:04.498Z,18.10
2022-09-17T01:13:52.913Z,18.06
2022-09-17T01:16:32.359Z,17.89
2022-09-17T01:19:44.647Z,17.80
2022-09-17T01:22:34.434Z,17.98
2022-09-17T01:25:25.794Z,17.90
2022-09-17T01:28:25.209Z,17.92
2022-09-17T01:31:01.597Z,18.07
2022-09-17T01:33:39.901Z,18.10
2022-09-17T01:36:40.032Z,18.06
2022-09-17T01:39:20.755Z,18.01
2022-09-17T01:41:48.296Z,17.95
2022-09-17T01:44:26.064Z,17.96
2022-09-17T01:46:59.049Z,17.96
2022-09-17T01:49:28.413Z,18.09
2022-09-17T01:51:56.967Z,18.02
2022-09-17T01:54:38.034Z,18.04
2022-09-17T01:57:15.339Z,17.97
2022-09-17T01:59:55.561Z,17.96
2022-09-17T02:02:46.489Z,17.85
2022-09-17T02:05:46.356Z,17.84
2022-09-17T02:08:24.612Z,17.81
2022-09-17T02:11:14.616Z,17.88
2022-09-17T02:14:03.273Z,17.88
2022-09-17T02:16:34.758Z,18.06
2022-09-17T02:19:18.720Z,18.02
2022-09-17T02:21:48.332Z,18.00
2022-09-17T02:24:27.912Z,18.01
2022-09-17T02:27:12.016Z,18.09
2022-09-17T02:29:42.138Z,18.01
2022-09-17T02:32:11.317Z,17.94
2022-09-17T02:34:39.649Z,18.12
2022-09-17T02:37:08.647Z,18.16
2022-09-17T02:39:36.657Z,17.98
2022-09-17T02:42:23.320Z,17.91
2022-09-17T02:44:59.516Z,17.97
2022-09-17T02:47:59.150Z,17.93
2022-09-17T02:51:06.956Z,18.16
2022-09-17T02:54:10.112Z,18.16
2022-09-17T02:56:57.269Z,18.08
2022-09-17T02:59:42.513Z,18.09
2022-09-17T03:02:33.537Z,17.96
2022-09-17T03:05:03.652Z,17.89
2022-09-17T03:07:32.717Z,18.04
2022-09-17T03:10:00.776Z,17.87
2022-09-17T03:12:28.453Z,17.95
2022-09-17T03:14:56.398Z,18.08
2022-09-17T03:17:23.900Z,18.04
2022-09-17T03:19:51.954Z,17.91
2022-09-17T03:22:20.142Z,18.07
2022-09-17T03:24:47.710Z,18.00
2022-09-17T03:27:15.219Z,18.12
2022-09-17T03:29:42.797Z,18.05
2022-09-17T03:32:11.451Z,17.94
2022-09-17T03:34:39.457Z,17.94
2022-09-17T03:37:06.984Z,17.90
2022-09-17T03:39:34.657Z,18.06
2022-09-17T03:42:02.552Z,18.03
2022-09-17T03:44:30.080Z,18.03
2022-09-17T03:46:58.152Z,18.09
2022-09-17T03:49:26.062Z,18.04
2022-09-17T03:51:54.108Z,18.09
2022-09-17T03:54:21.673Z,18.14
2022-09-17T03:56:49.141Z,18.15
2022-09-17T03:59:17.301Z,18.28
2022-09-17T04:01:45.316Z,18.35
2022-09-17T04:04:12.955Z,18.41
2022-09-17T04:06:40.458Z,18.17
2022-09-17T04:09:08.943Z,18.12
2022-09-17T04:11:36.518Z,17.60
2022-09-17T04:14:04.159Z,17.22
2022-09-17T04:16:31.735Z,17.08
2022-09-17T04:18:59.569Z,17.27
2022-09-17T04:21:27.265Z,17.24
2022-09-17T04:23:54.813Z,16.97
2022-09-17T04:26:22.691Z,17.00
2022-09-17T04:28:50.414Z,17.00
2022-09-17T04:31:18.052Z,17.22
2022-09-17T04:33:45.774Z,17.38
2022-09-17T04:36:13.234Z,17.31
2022-09-17T04:38:40.789Z,16.94
2022-09-17T04:41:08.987Z,17.06
2022-09-17T04:43:37.056Z,17.04
2022-09-17T04:46:05.142Z,17.20
2022-09-17T04:48:33.161Z,17.34
2022-09-17T04:51:00.626Z,17.46
2022-09-17T04:53:28.788Z,17.46
2022-09-17T04:55:56.293Z,17.55
2022-09-17T04:58:24.236Z,17.60
2022-09-17T05:00:52.269Z,17.35
2022-09-17T05:03:20.475Z,17.31
2022-09-17T05:05:48.531Z,17.25
2022-09-17T05:08:16.036Z,17.00
2022-09-17T05:10:43.490Z,16.85
2022-09-17T05:13:12.035Z,16.58
2022-09-17T05:15:39.635Z,16.47
2022-09-17T05:18:07.106Z,16.42
2022-09-17T05:20:34.622Z,16.16
2022-09-17T05:23:02.265Z,16.25
2022-09-17T05:25:29.920Z,16.19
2022-09-17T05:27:57.440Z,16.15
2022-09-17T05:30:25.912Z,16.09
2022-09-17T05:33:04.088Z,16.21
2022-09-17T05:35:32.469Z,16.52
2022-09-17T05:38:01.585Z,16.52
2022-09-17T05:40:30.790Z,16.51
2022-09-17T05:43:00.070Z,16.72
2022-09-17T05:45:28.121Z,16.56
2022-09-17T05:48:00.482Z,16.82
2022-09-17T05:50:29.557Z,16.73
2022-09-17T05:52:57.741Z,16.87
2022-09-17T05:55:25.529Z,16.67
2022-09-17T05:57:53.549Z,16.58
2022-09-17T06:00:21.262Z,16.36
2022-09-17T06:02:58.503Z,16.22
2022-09-17T06:05:26.674Z,16.43
2022-09-17T06:07:54.351Z,16.31
2022-09-17T06:10:22.372Z,16.36
2022-09-17T06:12:56.588Z,16.53
2022-09-17T06:15:24.815Z,16.62
2022-09-17T06:17:52.881Z,16.50
2022-09-17T06:20:21.275Z,16.70
2022-09-17T06:22:49.321Z,16.75
2022-09-17T06:25:17.270Z,16.59
2022-09-17T06:27:44.864Z,16.59
2022-09-17T06:30:12.985Z,16.33
2022-09-17T06:32:40.616Z,16.44
2022-09-17T06:35:08.650Z,16.26
2022-09-17T06:37:40.303Z,16.45
2022-09-17T06:40:09.166Z,16.56
2022-09-17T06:42:36.898Z,16.66
2022-09-17T06:45:09.314Z,16.72
2022-09-17T06:47:38.831Z,16.49
2022-09-17T06:50:07.530Z,16.40
2022-09-17T06:52:35.717Z,16.20
2022-09-17T06:55:03.437Z,16.35
2022-09-17T06:57:31.445Z,16.26
2022-09-17T06:59:59.371Z,16.04
2022-09-17T07:02:27.557Z,16.00
2022-09-17T07:04:55.438Z,16.20
2022-09-17T07:07:23.455Z,15.61
2022-09-17T07:09:50.994Z,15.62
2022-09-17T07:12:18.879Z,15.54
2022-09-17T07:14:47.676Z,15.43
2022-09-17T07:17:15.705Z,15.35
2022-09-17T07:19:43.648Z,15.49
2022-09-17T07:22:11.129Z,15.40
2022-09-17T07:24:38.739Z,15.29
2022-09-17T07:27:06.310Z,15.32
2022-09-17T07:29:33.799Z,15.52
2022-09-17T07:32:02.003Z,15.71
2022-09-17T07:34:29.906Z,15.74
2022-09-17T07:36:57.463Z,15.76
2022-09-17T07:39:25.077Z,15.32
2022-09-17T07:41:53.031Z,15.35
2022-09-17T07:44:22.218Z,15.21
2022-09-17T07:46:50.261Z,15.19
2022-09-17T07:49:18.215Z,15.10
2022-09-17T07:51:45.921Z,14.90
2022-09-17T07:54:13.643Z,14.95
2022-09-17T07:56:41.146Z,14.62
2022-09-17T07:59:09.618Z,14.47
2022-09-17T08:01:37.753Z,14.50
2022-09-17T08:04:06.191Z,14.56
2022-09-17T08:06:38.412Z,14.68
2022-09-17T08:09:07.332Z,14.92
2022-09-17T08:11:55.113Z,14.61
2022-09-17T08:14:27.014Z,14.71
2022-09-17T08:16:57.932Z,15.08
2022-09-17T08:19:28.241Z,15.04
2022-09-17T08:21:56.556Z,15.06
2022-09-17T08:24:24.488Z,15.14
2022-09-17T08:26:52.091Z,15.72
2022-09-17T08:29:19.764Z,15.99
2022-09-17T08:31:48.329Z,15.63
2022-09-17T08:34:16.405Z,15.70
2022-09-17T08:36:43.858Z,15.82
2022-09-17T08:39:12.279Z,16.03
2022-09-17T08:41:46.097Z,16.04
2022-09-17T08:44:30.808Z,16.56
2022-09-17T08:47:06.502Z,17.14
2022-09-17T08:49:35.448Z,17.27
2022-09-17T08:52:18.566Z,17.27
2022-09-17T08:54:53.059Z,17.13
2022-09-17T08:57:38.943Z,17.07
2022-09-17T09:00:16.800Z,17.39
2022-09-17T09:02:48.694Z,17.00
2022-09-17T09:05:30.348Z,17.11
2022-09-17T09:08:12.141Z,16.70
2022-09-17T09:10:55.473Z,16.89
2022-09-17T09:13:29.356Z,16.92
2022-09-17T09:16:04.624Z,17.29
2022-09-17T09:18:39.028Z,17.38
2022-09-17T09:21:21.760Z,17.34
2022-09-17T09:24:05.768Z,17.34
2022-09-17T09:26:45.134Z,17.30
2022-09-17T09:29:37.294Z,17.42
2022-09-17T09:32:26.954Z,18.10
2022-09-17T09:34:56.710Z,17.87
2022-09-17T09:37:32.167Z,17.97
2022-09-17T09:40:28.858Z,18.00
2022-09-17T09:43:01.487Z,18.26
2022-09-17T09:45:44.338Z,18.00
2022-09-17T09:48:33.137Z,18.45
2022-09-17T09:51:10.096Z,18.20
2022-09-17T09:54:02.119Z,18.58
2022-09-17T09:56:55.389Z,19.08
2022-09-17T09:59:23.256Z,19.31
2022-09-17T10:01:51.259Z,19.78
2022-09-17T10:04:25.363Z,19.72
2022-09-17T10:06:55.409Z,20.23
2022-09-17T10:09:22.999Z,19.99
2022-09-17T10:12:16.254Z,19.26
2022-09-17T10:14:46.551Z,20.23
2022-09-17T10:17:21.678Z,20.73
2022-09-17T10:20:12.237Z,20.91
2022-09-17T10:22:42.719Z,20.35
2022-09-17T10:25:30.640Z,20.50
2022-09-17T10:28:01.736Z,20.18
2022-09-17T10:30:31.023Z,19.84
2022-09-17T10:33:17.780Z,19.71
2022-09-17T10:35:58.304Z,19.36
2022-09-17T10:38:57.333Z,19.56
2022-09-17T10:41:25.898Z,19.48
2022-09-17T10:43:53.746Z,19.38
2022-09-17T10:46:28.096Z,19.67
2022-09-17T10:49:12.483Z,19.38
2022-09-17T10:51:40.312Z,19.34
2022-09-17T10:54:16.652Z,20.03
2022-09-17T10:56:53.613Z,19.88
2022-09-17T10:59:45.944Z,20.37
2022-09-17T11:02:25.933Z,19.60
2022-09-17T11:05:16.695Z,19.71
2022-09-17T11:08:01.048Z,19.51
2022-09-17T11:10:36.980Z,19.66
2022-09-17T11:13:16.581Z,20.19
2022-09-17T11:16:11.692Z,20.34
2022-09-17T11:18:43.483Z,21.00
2022-09-17T11:21:20.532Z,21.08
2022-09-17T11:24:02.509Z,24.14
2022-09-17T11:26:39.246Z,25.44
2022-09-17T11:29:30.218Z,25.65
2022-09-17T11:32:01.414Z,24.44
2022-09-17T11:34:39.079Z,24.64
2022-09-17T11:37:20.618Z,24.16
2022-09-17T11:39:59.697Z,22.24
2022-09-17T11:42:51.163Z,22.15
2022-09-17T11:45:21.039Z,21.77
2022-09-17T11:47:57.495Z,23.64
2022-09-17T11:50:33.689Z,26.25
2022-09-17T11:53:03.940Z,24.89
2022-09-17T11:55:40.470Z,25.87
2022-09-17T11:58:26.854Z,25.51
2022-09-17T12:01:04.228Z,25.63
2022-09-17T12:03:41.542Z,25.68
2022-09-17T12:06:14.816Z,25.83
2022-09-17T12:09:03.588Z,25.38
2022-09-17T12:11:38.281Z,24.74
2022-09-17T12:14:16.602Z,23.00
2022-09-17T12:16:48.675Z,23.71
2022-09-17T12:19:46.392Z,26.09
2022-09-17T12:22:26.946Z,28.03
2022-09-17T12:24:55.577Z,28.08
2022-09-17T12:27:35.099Z,26.43
2022-09-17T12:30:23.037Z,24.46
2022-09-17T12:32:56.985Z,23.00
2022-09-17T12:36:05.819Z,22.51
2022-09-17T12:38:53.669Z,22.05
2022-09-17T12:41:46.362Z,24.16
2022-09-17T12:44:54.998Z,25.77
2022-09-17T12:47:22.862Z,25.42
2022-09-17T12:50:02.221Z,23.91
2022-09-17T12:53:12.253Z,22.47
2022-09-17T12:55:48.047Z,22.51
2022-09-17T12:59:01.070Z,22.27
2022-09-17T13:01:37.127Z,22.01
2022-09-17T13:04:59.485Z,22.06
2022-09-17T13:07:34.566Z,21.47
2022-09-17T13:10:17.261Z,21.72
2022-09-17T13:12:53.368Z,23.03
2022-09-17T13:15:50.526Z,26.82
2022-09-17T13:18:31.634Z,29.67
2022-09-17T13:21:08.121Z,28.45
2022-09-17T13:23:45.883Z,27.19
2022-09-17T13:26:19.189Z,24.10
2022-09-17T13:28:50.002Z,23.18
2022-09-17T13:31:36.103Z,24.50
2022-09-17T13:34:04.707Z,26.10
2022-09-17T13:36:40.343Z,28.33
2022-09-17T13:39:34.068Z,29.32
2022-09-17T13:42:08.171Z,28.91
2022-09-17T13:44:40.105Z,29.55
2022-09-17T13:47:17.782Z,30.58
2022-09-17T13:49:51.940Z,29.00
2022-09-17T13:52:37.236Z,29.33
2022-09-17T13:55:06.819Z,31.02
2022-09-17T13:57:50.686Z,30.93
2022-09-17T14:00:47.601Z,29.97
2022-09-17T14:03:31.265Z,29.82
2022-09-17T14:06:05.545Z,30.78
2022-09-17T14:08:46.646Z,31.83
2022-09-17T14:11:34.446Z,31.54
2022-09-17T14:14:04.755Z,32.73
2022-09-17T14:16:50.390Z,33.45
2022-09-17T14:19:24.282Z,34.37
2022-09-17T14:21:57.541Z,33.48
2022-09-17T14:24:27.513Z,31.69
2022-09-17T14:27:13.868Z,32.12
2022-09-17T14:30:00.287Z,32.96
2022-09-17T14:32:42.415Z,33.80
2022-09-17T14:35:38.896Z,32.80
2022-09-17T14:38:15.272Z,33.01
2022-09-17T14:40:46.306Z,33.10
2022-09-17T14:43:54.753Z,33.06
2022-09-17T14:46:30.470Z,32.46
2022-09-17T14:49:24.442Z,32.10
2022-09-17T14:51:53.880Z,31.49
2022-09-17T14:54:26.594Z,32.78
2022-09-17T14:56:58.916Z,34.51
2022-09-17T14:59:43.804Z,33.70
2022-09-17T15:02:30.451Z,32.91
2022-09-17T15:04:58.883Z,31.12
2022-09-17T15:07:27.037Z,31.80
2022-09-17T15:10:06.019Z,33.99
2022-09-17T15:12:33.725Z,34.87
2022-09-17T15:15:01.506Z,36.34
2022-09-17T15:17:31.088Z,36.75
2022-09-17T15:19:59.475Z,35.38
2022-09-17T15:22:29.124Z,32.38
2022-09-17T15:25:04.277Z,32.63
2022-09-17T15:27:35.831Z,29.82
2022-09-17T15:30:09.842Z,29.37
2022-09-17T15:32:38.815Z,30.19
2022-09-17T15:35:15.811Z,31.86
2022-09-17T15:37:46.681Z,31.74
2022-09-17T15:40:27.783Z,30.31
2022-09-17T15:43:03.227Z,29.71
2022-09-17T15:45:39.215Z,28.04
2022-09-17T15:48:10.933Z,26.47
2022-09-17T15:50:53.149Z,25.01
2022-09-17T15:53:26.678Z,24.68
2022-09-17T15:56:13.243Z,23.08
2022-09-17T15:58:46.821Z,22.26
2022-09-17T16:01:14.213Z,21.25
2022-09-17T16:03:42.134Z,20.85
2022-09-17T16:06:18.639Z,20.56
2022-09-17T16:08:47.720Z,20.54
2022-09-17T16:11:21.678Z,20.32
2022-09-17T16:13:51.029Z,20.31
2022-09-17T16:16:32.133Z,20.31
2022-09-17T16:19:00.241Z,20.09
2022-09-17T16:21:29.141Z,19.94
2022-09-17T16:23:58.165Z,19.99
2022-09-17T16:26:29.916Z,19.65
2022-09-17T16:29:06.296Z,19.54
2022-09-17T16:31:34.443Z,19.33
2022-09-17T16:34:02.096Z,19.36
2022-09-17T16:36:32.001Z,19.49
2022-09-17T16:39:01.156Z,19.58
2022-09-17T16:41:28.623Z,19.47
2022-09-17T16:43:56.227Z,19.40
2022-09-17T16:46:23.743Z,19.33
2022-09-17T16:48:51.323Z,19.24
2022-09-17T16:51:19.643Z,19.23
2022-09-17T16:53:47.255Z,19.12
2022-09-17T16:56:15.714Z,18.98
2022-09-17T16:58:43.526Z,18.89
2022-09-17T17:01:14.587Z,18.84
2022-09-17T17:03:42.668Z,18.85
2022-09-17T17:06:20.806Z,18.82
2022-09-17T17:08:49.391Z,18.74
2022-09-17T17:11:17.360Z,18.72
2022-09-17T17:13:45.462Z,18.54
2022-09-17T17:16:15.415Z,18.47
2022-09-17T17:18:44.194Z,18.43
2022-09-17T17:21:14.044Z,18.42
2022-09-17T17:23:43.815Z,18.33
2022-09-17T17:26:11.618Z,18.25
2022-09-17T17:28:39.577Z,18.12
2022-09-17T17:31:07.066Z,18.18
2022-09-17T17:33:35.612Z,18.01
2022-09-17T17:36:08.138Z,17.98
2022-09-17T17:38:36.887Z,17.97
2022-09-17T17:41:13.366Z,18.05
2022-09-17T17:43:42.223Z,18.13
2022-09-17T17:46:11.616Z,18.03
2022-09-17T17:48:39.531Z,17.82
2022-09-17T17:51:09.015Z,17.75
2022-09-17T17:53:37.209Z,17.69
2022-09-17T17:56:08.007Z,17.60
2022-09-17T17:58:36.631Z,17.53
2022-09-17T18:01:16.374Z,17.37
2022-09-17T18:03:44.559Z,17.30
2022-09-17T18:06:12.863Z,17.26
2022-09-17T18:08:43.427Z,17.31
2022-09-17T18:11:12.397Z,17.19
2022-09-17T18:13:40.405Z,17.32
2022-09-17T18:16:10.685Z,17.41
2022-09-17T18:18:44.850Z,17.44
2022-09-17T18:21:16.270Z,17.36
2022-09-17T18:23:44.847Z,17.37
2022-09-17T18:26:14.897Z,17.30
2022-09-17T18:28:42.597Z,17.07
2022-09-17T18:31:27.979Z,17.11
2022-09-17T18:34:00.844Z,17.08
2022-09-17T18:36:30.526Z,17.06
2022-09-17T18:39:32.327Z,16.95
2022-09-17T18:41:50.814Z,17.11
2022-09-17T18:44:21.808Z,17.13
2022-09-17T18:46:51.238Z,17.04
2022-09-17T18:49:19.310Z,17.05
2022-09-17T18:51:47.218Z,16.91
2022-09-17T18:54:15.267Z,16.99
2022-09-17T18:56:43.415Z,16.98
2022-09-17T18:59:11.164Z,16.96
2022-09-17T19:01:39.769Z,16.81
2022-09-17T19:04:07.846Z,16.83
2022-09-17T19:06:36.454Z,16.86
2022-09-17T19:09:05.106Z,16.89
2022-09-17T19:11:35.640Z,16.90
2022-09-17T19:14:03.356Z,16.89
2022-09-17T19:16:31.178Z,16.78
2022-09-17T19:18:58.699Z,16.67
2022-09-17T19:21:26.749Z,16.74
2022-09-17T19:23:54.642Z,16.68
2022-09-17T19:26:25.395Z,16.79
2022-09-17T19:28:54.587Z,16.89
2022-09-17T19:31:22.495Z,16.88
2022-09-17T19:33:51.719Z,16.94
2022-09-17T19:36:22.724Z,16.79
2022-09-17T19:38:50.338Z,16.53
2022-09-17T19:41:20.372Z,16.47
2022-09-17T19:43:54.228Z,16.46
2022-09-17T19:46:24.303Z,16.39
2022-09-17T19:48:54.630Z,16.48
2022-09-17T19:51:24.576Z,16.52
2022-09-17T19:53:52.899Z,16.42
2022-09-17T19:56:23.306Z,16.58
2022-09-17T19:58:51.945Z,16.64
2022-09-17T20:01:20.258Z,16.45
2022-09-17T20:03:48.555Z,16.41
2022-09-17T20:06:18.073Z,16.48
2022-09-17T20:08:51.647Z,16.35
2022-09-17T20:11:21.544Z,16.41
2022-09-17T20:13:49.570Z,16.43
2022-09-17T20:16:20.167Z,16.34
2022-09-17T20:18:49.233Z,16.35
2022-09-17T20:21:20.502Z,16.21
2022-09-17T20:23:48.423Z,16.23
2022-09-17T20:26:16.765Z,16.31
2022-09-17T20:28:44.853Z,16.35
2022-09-17T20:31:15.199Z,16.30
2022-09-17T20:33:43.596Z,16.32
2022-09-17T20:36:19.305Z,16.40
2022-09-17T20:41:37.931Z,16.44
2022-09-17T20:44:06.919Z,16.32
2022-09-17T20:46:35.010Z,16.23
2022-09-17T20:49:03.214Z,16.23
2022-09-17T20:51:33.361Z,16.11
2022-09-17T20:54:01.832Z,16.02
2022-09-17T20:56:33.220Z,15.92
2022-09-17T20:59:14.456Z,15.99
2022-09-17T21:01:45.613Z,16.05
2022-09-17T21:04:18.982Z,16.16
2022-09-17T21:06:48.020Z,16.14
2022-09-17T21:09:16.721Z,16.14
2022-09-17T21:11:46.359Z,16.14
2022-09-17T21:14:15.936Z,16.18
2022-09-17T21:16:44.800Z,16.08
2022-09-17T21:19:16.267Z,16.03
2022-09-17T21:21:44.684Z,16.00
2022-09-17T21:24:12.424Z,16.05
2022-09-17T21:26:40.102Z,16.10
2022-09-17T21:29:08.195Z,16.04
2022-09-17T21:31:37.427Z,15.90
2022-09-17T21:34:07.801Z,15.81
2022-09-17T21:36:37.321Z,15.73
2022-09-17T21:39:09.665Z,15.73
2022-09-17T21:41:41.597Z,15.79
2022-09-17T21:44:11.835Z,15.71
2022-09-17T21:46:41.876Z,15.72
2022-09-17T21:49:10.296Z,15.77
2022-09-17T21:51:39.549Z,15.77
2022-09-17T21:54:12.533Z,15.84
2022-09-17T21:56:40.772Z,15.86
2022-09-17T21:59:11.175Z,15.86
2022-09-17T22:01:41.391Z,15.84
2022-09-17T22:04:12.588Z,15.73
2022-09-17T22:06:41.636Z,15.58
2022-09-17T22:09:15.095Z,15.56
2022-09-17T22:11:42.635Z,15.41
2022-09-17T22:14:13.115Z,15.45
2022-09-17T22:16:43.861Z,15.37
2022-09-17T22:19:14.973Z,15.21
2022-09-17T22:21:47.265Z,15.14
2022-09-17T22:24:16.783Z,15.11
2022-09-17T22:26:47.581Z,15.12
2022-09-17T22:29:19.297Z,15.07
2022-09-17T22:31:47.499Z,15.14
2022-09-17T22:34:18.465Z,15.23
2022-09-17T22:36:47.027Z,15.35
2022-09-17T22:39:14.631Z,15.28
2022-09-17T22:41:45.367Z,15.24
2022-09-17T22:44:18.615Z,15.23
2022-09-17T22:46:48.457Z,15.13
2022-09-17T22:49:16.701Z,15.12
2022-09-17T22:51:47.138Z,15.11
2022-09-17T22:54:16.861Z,15.10
2022-09-17T22:56:45.111Z,15.06
2022-09-17T22:59:13.067Z,15.08
2022-09-17T23:01:41.352Z,14.93
2022-09-17T23:04:09.685Z,14.89
2022-09-17T23:06:39.359Z,14.79
2022-09-17T23:09:07.392Z,14.85
2022-09-17T23:11:38.819Z,14.88
2022-09-17T23:14:09.603Z,14.71
2022-09-17T23:16:39.870Z,14.65
2022-09-17T23:19:08.349Z,14.61
2022-09-17T23:21:36.894Z,14.54
2022-09-17T23:24:04.556Z,14.65
2022-09-17T23:26:32.073Z,14.62
2022-09-17T23:29:05.019Z,14.67
2022-09-17T23:31:35.170Z,14.67
2022-09-17T23:34:04.910Z,14.56
2022-09-17T23:36:38.327Z,14.50
2022-09-17T23:39:07.642Z,14.41
2022-09-17T23:41:38.823Z,14.36
2022-09-17T23:44:14.452Z,14.35
2022-09-17T23:46:44.291Z,14.24
2022-09-17T23:49:13.636Z,14.27
2022-09-17T23:51:42.177Z,14.28
2022-09-17T23:54:10.775Z,14.15
2022-09-17T23:56:38.734Z,14.20
2022-09-17T23:59:07.439Z,14.32
